Time;durP1;ratioP1;P1;durP2;ratioP2;P2;SDS_P1;SDS_P2;PMS_P1;PMS_P2;Temp;Humidity;BMP_temperature;BMP_pressure;BME280_temperature;BME280_humidity;BME280_pressure;Samples;Min_cycle;Max_cycle;Signal;HPM_P1;HPM_P2
2021/12/05 00:24:16;;;;;;;1.00;0.40;;;;;;;3.30;90.12;94915.00;5127587;27;20468;-72
2021/12/05 00:26:50;;;;;;;0.55;0.47;;;;;;;3.21;89.73;94924.91;5125636;27;20047;-74
2021/12/05 00:29:32;;;;;;;0.85;0.68;;;;;;;3.08;89.94;94926.56;5125219;27;20456;-77
2021/12/05 00:32:07;;;;;;;0.90;0.80;;;;;;;3.01;90.63;94931.53;5125698;27;20055;-74
2021/12/05 00:48:44;;;;;;;3.50;1.27;;;;;;;3.01;90.41;94958.44;5082646;28;20059;-74
2021/12/05 01:00:09;;;;;;;4.90;1.70;;;;;;;3.05;87.84;94955.94;5104917;28;20046;-74
2021/12/05 01:02:56;;;;;;;6.93;1.60;;;;;;;3.03;88.53;94960.84;5105031;28;20039;-73
2021/12/05 01:13:44;;;;;;;4.63;1.40;;;;;;;3.22;86.83;94974.91;5104250;28;20055;-74
2021/12/05 01:16:16;;;;;;;4.45;1.20;;;;;;;3.27;85.64;94971.28;5104498;28;20051;-73
2021/12/05 01:18:42;;;;;;;4.00;1.10;;;;;;;3.29;85.93;94971.78;5104421;28;20514;-73
2021/12/05 01:21:13;;;;;;;4.53;1.40;;;;;;;3.32;85.57;94979.25;5104057;28;20054;-73
2021/12/05 01:23:51;;;;;;;3.70;1.20;;;;;;;3.35;85.63;94978.66;5104462;28;20075;-73
2021/12/05 01:26:21;;;;;;;3.08;1.20;;;;;;;3.35;84.98;94987.50;5103816;28;20048;-71
2021/12/05 01:31:41;;;;;;;4.53;1.15;;;;;;;3.35;83.95;94994.78;5101200;28;20456;-71
2021/12/05 01:34:19;;;;;;;1.50;0.90;;;;;;;3.29;83.87;94994.13;5098232;28;20051;-74
2021/12/05 01:36:56;;;;;;;2.60;0.90;;;;;;;3.26;84.07;94992.03;5090818;28;20074;-71
2021/12/05 01:39:36;;;;;;;4.15;1.15;;;;;;;3.21;83.81;95000.22;5090288;28;20055;-73
2021/12/05 01:51:16;;;;;;;3.08;0.70;;;;;;;3.11;83.66;95005.81;5096129;28;20516;-71
2021/12/05 01:54:16;;;;;;;4.60;1.00;;;;;;;3.07;83.02;95007.53;5090270;28;20063;-71
2021/12/05 01:57:07;;;;;;;4.57;1.00;;;;;;;3.05;82.94;95007.84;5089995;28;20123;-71
2021/12/05 02:00:04;;;;;;;3.65;1.10;;;;;;;3.07;83.22;95010.22;5090320;28;20048;-72
2021/12/05 02:16:46;;;;;;;2.30;0.90;;;;;;;2.82;82.68;95015.06;5045677;28;20059;-74
2021/12/05 02:30:55;;;;;;;4.15;0.85;;;;;;;2.66;83.44;95016.44;5089746;28;20059;-71
2021/12/05 02:33:33;;;;;;;2.47;0.90;;;;;;;2.62;83.46;95026.22;5088956;28;20166;-72
2021/12/05 02:36:27;;;;;;;7.43;0.70;;;;;;;2.61;83.54;95025.44;5089824;28;20051;-72
2021/12/05 02:39:23;;;;;;;2.65;0.80;;;;;;;2.61;83.97;95024.63;5089582;28;20050;-71
2021/12/05 02:41:53;;;;;;;3.28;0.98;;;;;;;2.57;83.98;95019.06;5090551;27;20048;-73
2021/12/05 02:44:22;;;;;;;2.95;1.00;;;;;;;2.58;83.80;95023.34;5088963;28;20048;-70
2021/12/05 02:46:52;;;;;;;2.50;0.75;;;;;;;2.60;83.98;95023.81;5088456;28;20703;-73
2021/12/05 02:49:19;;;;;;;4.47;1.63;;;;;;;2.62;84.38;95031.59;5088950;28;20159;-71
2021/12/05 02:51:53;;;;;;;2.17;0.80;;;;;;;2.67;84.02;95034.19;5089390;28;20047;-71
2021/12/05 02:54:25;;;;;;;2.40;0.90;;;;;;;2.70;83.91;95025.50;5088632;28;20461;-71
2021/12/05 02:56:53;;;;;;;4.18;1.05;;;;;;;2.72;83.87;95027.91;5089131;28;20140;-71
2021/12/05 02:59:26;;;;;;;1.95;0.90;;;;;;;2.76;84.08;95029.69;5088611;28;20048;-71
2021/12/05 03:01:59;;;;;;;2.45;0.65;;;;;;;2.78;83.75;95040.94;5089100;28;20095;-71
2021/12/05 03:04:30;;;;;;;4.05;1.13;;;;;;;2.84;83.77;95042.44;5088429;28;20044;-71
2021/12/05 03:06:59;;;;;;;1.52;0.88;;;;;;;2.88;83.75;95043.44;5089032;28;20055;-71
2021/12/05 03:09:26;;;;;;;4.05;1.00;;;;;;;2.86;83.79;95037.53;5088408;28;20089;-71
2021/12/05 03:11:54;;;;;;;4.38;1.00;;;;;;;2.84;83.86;95045.13;5088449;28;20044;-71
2021/12/05 03:14:22;;;;;;;3.47;1.00;;;;;;;2.91;84.06;95043.91;5088589;28;20047;-71
2021/12/05 03:16:49;;;;;;;3.40;1.13;;;;;;;2.91;83.95;95047.38;5088430;28;20055;-72
2021/12/05 03:19:16;;;;;;;3.90;1.30;;;;;;;2.94;83.95;95051.38;5088267;28;20055;-71
2021/12/05 03:21:44;;;;;;;3.13;1.00;;;;;;;2.94;83.87;95046.00;5088604;28;20056;-72
2021/12/05 03:24:11;;;;;;;1.58;0.88;;;;;;;2.96;84.16;95049.97;5088104;28;20052;-71
2021/12/05 03:26:43;;;;;;;3.15;1.00;;;;;;;2.94;84.25;95049.50;5088566;28;20055;-71
2021/12/05 03:29:12;;;;;;;1.58;0.80;;;;;;;2.92;84.63;95053.56;5088566;28;20051;-71
2021/12/05 03:31:40;;;;;;;3.65;1.20;;;;;;;2.84;85.09;95060.44;5088654;28;20048;-70
2021/12/05 03:34:09;;;;;;;1.92;1.00;;;;;;;2.72;85.01;95058.28;5087885;28;20058;-73
2021/12/05 03:36:37;;;;;;;5.65;1.30;;;;;;;2.67;85.23;95061.06;5088171;28;20499;-71
2021/12/05 03:39:07;;;;;;;4.18;1.10;;;;;;;2.67;85.41;95066.44;5081575;28;20056;-70
2021/12/05 03:41:35;;;;;;;4.28;1.02;;;;;;;2.70;85.46;95055.06;5088642;28;20071;-70
2021/12/05 03:44:05;;;;;;;3.63;1.00;;;;;;;2.73;84.69;95059.88;5087781;28;20051;-71
2021/12/05 03:46:32;;;;;;;2.10;0.85;;;;;;;2.69;84.46;95055.38;5082356;28;20114;-71
2021/12/05 03:49:03;;;;;;;4.65;0.80;;;;;;;2.64;84.80;95064.34;5088417;28;20131;-70
2021/12/05 03:51:32;;;;;;;1.75;0.80;;;;;;;2.65;84.99;95063.25;5100223;28;20046;-71
2021/12/05 03:53:59;;;;;;;4.32;0.90;;;;;;;2.64;85.18;95060.84;5108508;28;20043;-71
2021/12/05 03:56:25;;;;;;;4.43;0.80;;;;;;;2.61;85.25;95062.25;5107917;28;20051;-71
2021/12/05 03:58:53;;;;;;;2.88;0.82;;;;;;;2.63;85.38;95068.13;5108311;28;20043;-71
2021/12/05 04:01:24;;;;;;;1.58;0.68;;;;;;;2.67;85.21;95063.75;5108122;28;20055;-71
2021/12/05 04:03:51;;;;;;;2.35;0.80;;;;;;;2.69;85.34;95058.88;5108447;27;20130;-71
2021/12/05 04:06:21;;;;;;;1.75;0.80;;;;;;;2.67;85.07;95055.69;5107731;27;20043;-71
2021/12/05 04:08:49;;;;;;;3.22;0.90;;;;;;;2.68;84.99;95057.28;5108197;28;20043;-71
2021/12/05 04:11:18;;;;;;;4.18;1.70;;;;;;;2.61;85.07;95059.59;5107974;28;20097;-70
2021/12/05 04:13:46;;;;;;;2.33;0.95;;;;;;;2.54;85.05;95053.78;5108388;28;20124;-71
2021/12/05 04:16:14;;;;;;;3.78;0.90;;;;;;;2.48;85.29;95057.69;5102468;28;20063;-72
2021/12/05 04:18:45;;;;;;;4.00;1.10;;;;;;;2.45;85.43;95064.41;5108211;28;20508;-73
2021/12/05 04:21:11;;;;;;;2.03;1.05;;;;;;;2.46;85.77;95059.88;5107728;28;20134;-70
2021/12/05 04:23:38;;;;;;;1.95;0.82;;;;;;;2.49;85.32;95064.63;5108006;28;20055;-71
2021/12/05 04:26:05;;;;;;;2.47;0.85;;;;;;;2.51;84.78;95062.47;5107897;28;20135;-70
2021/12/05 04:28:32;;;;;;;5.13;0.90;;;;;;;2.52;84.43;95059.47;5108219;28;20051;-71
2021/12/05 04:30:59;;;;;;;2.78;1.00;;;;;;;2.48;83.66;95063.03;5108099;28;20067;-71
2021/12/05 04:33:26;;;;;;;4.32;0.80;;;;;;;2.48;83.66;95054.97;5107644;28;20047;-72
2021/12/05 04:35:54;;;;;;;2.65;0.93;;;;;;;2.47;83.55;95048.03;5107888;28;20391;-71
2021/12/05 04:38:21;;;;;;;1.50;0.93;;;;;;;2.43;83.80;95047.81;5107538;28;20516;-70
2021/12/05 04:40:48;;;;;;;1.52;0.80;;;;;;;2.39;83.61;95048.69;5107716;28;20048;-71
2021/12/05 04:43:14;;;;;;;2.03;0.88;;;;;;;2.35;83.53;95043.94;5107636;28;20112;-70
2021/12/05 04:45:41;;;;;;;5.00;1.35;;;;;;;2.28;83.42;95048.09;5107558;28;20047;-71
2021/12/05 04:48:09;;;;;;;4.53;0.80;;;;;;;2.24;83.39;95037.16;5107346;28;20051;-71
2021/12/05 04:50:37;;;;;;;2.90;1.05;;;;;;;2.21;83.58;95037.75;5108063;28;20047;-71
2021/12/05 04:53:06;;;;;;;2.63;0.90;;;;;;;2.18;83.54;95038.34;5107583;28;20077;-71
2021/12/05 04:55:33;;;;;;;2.90;0.95;;;;;;;2.16;83.56;95039.75;5108118;28;20445;-71
2021/12/05 04:58:02;;;;;;;2.00;0.90;;;;;;;2.16;83.55;95035.16;5107683;28;20220;-71
2021/12/05 05:00:31;;;;;;;2.20;1.00;;;;;;;2.18;83.48;95041.03;5107569;28;20144;-71
2021/12/05 05:02:58;;;;;;;3.28;0.95;;;;;;;2.19;83.36;95031.88;5107656;28;20043;-71
2021/12/05 05:05:28;;;;;;;2.95;0.80;;;;;;;2.20;82.71;95036.16;5107785;28;20745;-71
2021/12/05 05:07:55;;;;;;;2.60;0.80;;;;;;;2.19;82.94;95031.88;5107777;28;20666;-72
2021/12/05 05:10:26;;;;;;;1.63;0.80;;;;;;;2.20;82.73;95036.16;5110224;28;20051;-71
2021/12/05 05:12:53;;;;;;;3.45;0.90;;;;;;;2.17;82.36;95034.06;5111804;28;20046;-71
2021/12/05 05:15:23;;;;;;;4.40;0.93;;;;;;;2.14;82.32;95034.69;5110711;28;20043;-71
2021/12/05 05:17:51;;;;;;;3.17;0.90;;;;;;;2.17;82.34;95036.75;5111102;27;20043;-71
2021/12/05 05:20:23;;;;;;;2.28;0.80;;;;;;;2.18;82.40;95027.59;5110887;28;20047;-71
2021/12/05 05:23:15;;;;;;;1.57;0.70;;;;;;;2.19;82.02;95033.75;5111260;27;20460;-71
2021/12/05 05:42:26;;;;;;;1.98;0.77;;;;;;;1.96;81.97;95019.41;5087142;27;20428;-72
2021/12/05 05:47:50;;;;;;;4.15;0.85;;;;;;;2.00;81.97;95033.84;5063051;28;20071;-70
2021/12/05 05:50:19;;;;;;;2.97;0.70;;;;;;;2.00;82.29;95028.47;5070033;28;20068;-72
2021/12/05 05:52:46;;;;;;;2.72;0.88;;;;;;;2.03;81.88;95036.72;5070132;28;20056;-72
2021/12/05 05:55:13;;;;;;;4.07;0.80;;;;;;;2.07;81.75;95036.94;5069649;28;20083;-72
2021/12/05 05:57:46;;;;;;;2.85;0.80;;;;;;;2.09;81.61;95034.75;5069793;28;20068;-72
2021/12/05 06:00:19;;;;;;;3.33;1.00;;;;;;;2.08;81.45;95033.94;5069527;28;20569;-72
2021/12/05 06:05:31;;;;;;;3.20;1.20;;;;;;;2.05;81.81;95028.38;5069798;28;19998;-73
2021/12/05 06:07:58;;;;;;;2.75;1.05;;;;;;;2.08;81.46;95027.78;5069566;28;20052;-73
2021/12/05 06:10:28;;;;;;;3.08;1.27;;;;;;;2.13;81.54;95027.69;5069647;28;20052;-73
2021/12/05 06:12:57;;;;;;;4.65;1.00;;;;;;;2.17;81.18;95036.75;5069892;28;20052;-71
2021/12/05 06:15:26;;;;;;;2.53;0.90;;;;;;;2.18;80.70;95037.53;5077189;28;20578;-72
2021/12/05 06:17:53;;;;;;;3.92;1.20;;;;;;;2.18;81.12;95037.53;5089789;28;20051;-72
2021/12/05 06:20:24;;;;;;;5.75;1.13;;;;;;;2.21;81.11;95037.75;5089505;28;20173;-72
2021/12/05 06:22:51;;;;;;;2.75;1.08;;;;;;;2.22;80.73;95039.34;5090036;28;20161;-72
2021/12/05 06:25:21;;;;;;;4.00;1.25;;;;;;;2.21;80.83;95037.75;5089287;28;20051;-70
2021/12/05 06:27:48;;;;;;;3.25;1.00;;;;;;;2.19;80.89;95045.28;5089452;28;20047;-73
2021/12/05 06:30:21;;;;;;;4.82;1.17;;;;;;;2.18;80.87;95048.28;5088870;28;20575;-73
2021/12/05 06:38:38;;;;;;;4.07;1.02;;;;;;;2.18;81.00;95054.44;5089111;28;20582;-71
2021/12/05 06:41:12;;;;;;;5.43;1.70;;;;;;;2.14;81.11;95052.66;5089171;28;20143;-70
2021/12/05 06:46:27;;;;;;;4.50;1.05;;;;;;;2.20;81.46;95060.34;5088801;28;20055;-70
2021/12/05 06:48:54;;;;;;;3.92;1.20;;;;;;;2.24;81.51;95061.31;5089305;28;20073;-71
2021/12/05 06:51:24;;;;;;;3.22;1.23;;;;;;;2.29;81.35;95066.59;5089087;28;20048;-70
2021/12/05 06:53:50;;;;;;;3.10;1.10;;;;;;;2.33;81.02;95064.13;5089490;28;20078;-70
2021/12/05 06:56:17;;;;;;;4.28;1.10;;;;;;;2.34;81.22;95063.81;5088921;28;20461;-70
2021/12/05 06:58:44;;;;;;;6.13;1.13;;;;;;;2.39;80.67;95076.38;5089018;28;20043;-70
2021/12/05 07:01:12;;;;;;;4.13;1.10;;;;;;;2.41;80.81;95073.41;5088830;28;20052;-70
2021/12/05 07:03:44;;;;;;;5.20;1.20;;;;;;;2.42;80.55;95078.47;5089037;28;20044;-71
2021/12/05 07:06:12;;;;;;;3.28;1.55;;;;;;;2.38;80.48;95082.03;5088486;28;20054;-70
2021/12/05 07:08:42;;;;;;;3.47;1.20;;;;;;;2.40;80.61;95090.59;5088808;28;20224;-71
2021/12/05 07:11:14;;;;;;;3.72;1.20;;;;;;;2.39;80.54;95087.09;5088629;28;20048;-72
2021/12/05 07:14:18;;;;;;;2.28;0.75;;;;;;;2.38;80.43;95085.53;5089107;28;20048;-72
2021/12/05 07:16:51;;;;;;;2.80;1.02;;;;;;;2.34;80.71;95085.31;5088284;28;20116;-72
2021/12/05 07:19:33;;;;;;;11.30;2.03;;;;;;;2.38;80.95;95082.03;5088390;28;20055;-70
2021/12/05 07:22:03;;;;;;;3.55;1.17;;;;;;;2.39;80.71;95080.94;5088735;28;20130;-71
2021/12/05 07:24:42;;;;;;;6.15;1.10;;;;;;;2.40;80.77;95077.16;5104852;27;20040;-73
2021/12/05 07:40:20;;;;;;;4.22;1.25;;;;;;;2.40;80.76;95071.78;5087960;28;20040;-72
2021/12/05 07:41:06;;;;;;;3.10;1.15;;;;;;;2.41;80.74;95068.03;5088477;28;20104;-70
2021/12/05 07:43:33;;;;;;;4.47;1.55;;;;;;;2.44;80.45;95070.09;5095467;28;20044;-72
2021/12/05 07:46:05;;;;;;;6.28;1.40;;;;;;;2.47;80.70;95061.47;5086966;28;20059;-73
2021/12/05 07:48:35;;;;;;;4.90;1.33;;;;;;;2.49;80.94;95064.63;5088007;28;20059;-72
2021/12/05 07:51:10;;;;;;;3.08;1.10;;;;;;;2.49;81.10;95064.63;5088208;28;20070;-72
2021/12/05 07:53:47;;;;;;;3.80;1.35;;;;;;;2.53;81.11;95081.75;5088220;28;20047;-72
2021/12/05 07:56:18;;;;;;;4.30;1.67;;;;;;;2.59;81.25;95072.50;5088100;28;20115;-72
2021/12/05 07:59:02;;;;;;;5.25;1.60;;;;;;;2.63;81.45;95075.41;5088177;28;20067;-72
2021/12/05 08:15:15;;;;;;;5.25;1.80;;;;;;;2.88;79.58;95083.75;5087482;28;20082;-72
2021/12/05 08:17:49;;;;;;;4.20;1.80;;;;;;;2.85;79.88;95088.94;5087437;28;20062;-72
2021/12/05 08:20:16;;;;;;;3.60;1.70;;;;;;;2.84;80.03;95082.75;5087246;28;20079;-73
2021/12/05 08:22:44;;;;;;;5.43;1.67;;;;;;;2.85;80.15;95089.72;5087908;28;20052;-74
2021/12/05 08:25:12;;;;;;;5.30;2.03;;;;;;;2.86;80.24;95085.94;5087461;28;20075;-75
2021/12/05 08:27:43;;;;;;;5.75;1.80;;;;;;;2.87;80.45;95082.16;5087582;28;20050;-75
2021/12/05 08:30:15;;;;;;;6.20;2.10;;;;;;;2.86;80.76;95085.94;5087429;28;20048;-72
2021/12/05 08:32:56;;;;;;;6.75;2.05;;;;;;;2.90;80.64;95079.97;5088119;28;20052;-74
2021/12/05 08:35:42;;;;;;;5.18;2.08;;;;;;;2.91;80.80;95081.56;5087660;28;20044;-72
2021/12/05 08:38:54;;;;;;;6.03;2.20;;;;;;;2.93;80.76;95085.53;5087171;28;20044;-74
2021/12/05 09:25:54;;;;;;;9.32;2.53;;;;;;;3.69;79.81;95096.53;5089047;28;20116;-71
2021/12/05 09:28:43;;;;;;;5.28;2.08;;;;;;;3.76;79.68;95101.47;5111198;28;20071;-71
2021/12/05 09:38:30;;;;;;;5.93;2.13;;;;;;;3.81;79.19;95099.50;5111232;28;20044;-71
2021/12/05 10:02:34;;;;;;;5.78;2.40;;;;;;;4.36;77.75;95082.22;5090634;28;20166;-71
2021/12/05 10:08:05;;;;;;;4.43;2.00;;;;;;;4.47;76.46;95088.94;5089918;28;20070;-71
2021/12/05 10:10:38;;;;;;;5.65;2.42;;;;;;;4.41;74.60;95085.59;5089995;28;20048;-71
2021/12/05 10:13:14;;;;;;;5.70;2.33;;;;;;;4.51;74.57;95089.13;5089663;28;20126;-71
2021/12/05 10:15:57;;;;;;;5.38;2.17;;;;;;;4.56;74.74;95086.31;5090027;28;20530;-71
2021/12/05 10:18:51;;;;;;;3.85;1.70;;;;;;;4.44;73.61;95090.38;5089197;28;20463;-71
2021/12/05 10:35:46;;;;;;;3.17;1.70;;;;;;;4.25;74.48;95076.31;5089402;28;20104;-72
2021/12/05 10:38:16;;;;;;;4.05;1.90;;;;;;;4.25;74.83;95060.16;5089027;28;20054;-72
2021/12/05 10:40:48;;;;;;;5.18;1.95;;;;;;;4.26;75.03;95060.94;5089680;28;20155;-71
2021/12/05 10:43:17;;;;;;;5.90;1.90;;;;;;;4.29;75.31;95061.13;5088947;28;20044;-71
2021/12/05 10:45:48;;;;;;;3.92;1.92;;;;;;;4.39;75.40;95071.66;5089177;28;20047;-72
2021/12/05 10:48:23;;;;;;;8.75;1.85;;;;;;;4.43;74.51;95066.41;5088871;28;20122;-71
2021/12/05 10:50:52;;;;;;;5.82;1.90;;;;;;;4.45;75.18;95065.00;5089472;28;20635;-72
2021/12/05 10:53:26;;;;;;;5.10;2.17;;;;;;;4.44;74.63;95068.81;5088994;28;20047;-71
2021/12/05 10:56:00;;;;;;;5.20;1.80;;;;;;;4.37;74.33;95079.22;5089239;28;20044;-72
2021/12/05 10:58:33;;;;;;;3.72;2.10;;;;;;;4.34;74.63;95063.69;5088831;28;20048;-71
2021/12/05 11:01:09;;;;;;;6.70;1.95;;;;;;;4.38;74.71;95069.25;5089491;28;20048;-72
2021/12/05 11:03:38;;;;;;;5.82;1.95;;;;;;;4.31;73.75;95069.69;5089158;28;20040;-71
2021/12/05 11:06:33;;;;;;;5.28;1.70;;;;;;;4.35;74.57;95067.19;5088788;28;20635;-70
2021/12/05 11:09:04;;;;;;;4.20;1.80;;;;;;;4.28;74.43;95073.00;5083835;28;20138;-72
2021/12/05 11:11:31;;;;;;;5.80;1.70;;;;;;;4.27;74.88;95074.09;5088898;28;20487;-71
2021/12/05 11:14:01;;;;;;;7.30;2.10;;;;;;;4.30;73.94;95072.69;5089184;28;20135;-71
2021/12/05 11:16:39;;;;;;;4.82;1.58;;;;;;;4.32;74.12;95071.28;5089018;28;20544;-72
2021/12/05 11:19:21;;;;;;;2.42;1.42;;;;;;;4.38;74.01;95070.03;5088694;28;20048;-71
2021/12/05 11:21:53;;;;;;;2.92;1.33;;;;;;;4.41;74.14;95069.41;5088924;28;20052;-73
2021/12/05 11:24:24;;;;;;;4.78;1.65;;;;;;;4.44;73.13;95071.50;5088718;28;20105;-71
2021/12/05 11:27:12;;;;;;;9.63;1.95;;;;;;;4.50;73.55;95082.94;5088574;28;20047;-72
2021/12/05 11:29:47;;;;;;;6.43;1.40;;;;;;;4.51;72.14;95081.03;5108649;28;20051;-71
2021/12/05 11:32:16;;;;;;;3.80;1.27;;;;;;;4.55;72.89;95079.31;5108698;28;20050;-72
2021/12/05 11:34:43;;;;;;;3.47;1.55;;;;;;;4.57;71.99;95087.88;5109258;28;20045;-72
2021/12/05 11:37:11;;;;;;;3.13;1.00;;;;;;;4.57;70.67;95083.28;5108369;28;20051;-73
2021/12/05 11:39:38;;;;;;;3.13;1.25;;;;;;;4.56;71.66;95084.41;5109080;27;20410;-72
2021/12/05 11:42:17;;;;;;;2.35;1.20;;;;;;;4.56;69.92;95084.41;5108713;28;20050;-71
2021/12/05 11:44:46;;;;;;;2.67;1.17;;;;;;;4.54;70.59;95083.09;5101229;28;20422;-71
2021/12/05 11:47:16;;;;;;;3.75;1.20;;;;;;;4.48;70.82;95076.25;5087970;28;20455;-70
2021/12/05 11:49:43;;;;;;;3.05;1.00;;;;;;;4.51;71.06;95076.44;5088969;28;20052;-71
2021/12/05 11:52:11;;;;;;;3.75;1.23;;;;;;;4.52;72.22;95074.53;5087651;28;20134;-71
2021/12/05 11:54:40;;;;;;;3.03;1.20;;;;;;;4.55;72.80;95076.63;5088317;28;20052;-71
2021/12/05 11:57:09;;;;;;;4.07;1.20;;;;;;;4.56;73.20;95075.53;5087364;28;20044;-72
2021/12/05 11:59:39;;;;;;;3.75;1.40;;;;;;;4.54;73.54;95080.41;5088741;28;20056;-71
2021/12/05 12:02:08;;;;;;;3.83;1.20;;;;;;;4.60;73.25;95082.69;5087423;28;20071;-71
2021/12/05 12:04:43;;;;;;;4.10;1.52;;;;;;;4.61;70.33;95072.69;5088041;28;20047;-72
2021/12/05 12:07:17;;;;;;;8.95;1.00;;;;;;;4.58;70.88;95071.41;5085888;28;20052;-71
2021/12/05 12:09:46;;;;;;;3.20;1.08;;;;;;;4.60;71.20;95071.09;5088023;28;20074;-72
2021/12/05 12:12:13;;;;;;;3.33;1.17;;;;;;;4.62;71.12;95075.06;5087497;28;20081;-71
2021/12/05 12:14:40;;;;;;;4.25;1.70;;;;;;;4.63;71.38;95070.47;5088716;28;20052;-71
2021/12/05 12:17:13;;;;;;;6.88;1.45;;;;;;;4.59;70.58;95069.50;5087522;28;20051;-71
2021/12/05 12:19:39;;;;;;;5.65;1.20;;;;;;;4.62;70.86;95074.28;5087958;28;20068;-72
2021/12/05 12:22:08;;;;;;;4.22;1.25;;;;;;;4.62;71.69;95071.56;5087231;28;20055;-71
2021/12/05 12:24:36;;;;;;;5.32;1.50;;;;;;;4.62;72.42;95066.97;5088002;28;20136;-71
2021/12/05 12:27:04;;;;;;;2.50;1.20;;;;;;;4.63;71.92;95067.78;5085831;28;20052;-70
2021/12/05 12:29:31;;;;;;;4.82;1.45;;;;;;;4.67;71.22;95066.03;5087592;28;20055;-71
2021/12/05 12:32:06;;;;;;;3.58;1.08;;;;;;;4.63;70.19;95059.69;5087381;28;20060;-73
2021/12/05 12:34:33;;;;;;;5.55;1.20;;;;;;;4.59;70.80;95069.50;5087757;28;20056;-72
2021/12/05 12:37:01;;;;;;;4.13;1.42;;;;;;;4.50;69.92;95064.09;5086876;28;20051;-73
2021/12/05 12:39:33;;;;;;;5.80;1.13;;;;;;;4.48;70.70;95065.47;5087472;28;20044;-73
2021/12/05 12:42:20;;;;;;;3.80;1.15;;;;;;;4.47;70.26;95062.00;5087297;28;20075;-73
2021/12/05 12:45:09;;;;;;;4.82;1.30;;;;;;;4.43;70.29;95059.13;5090731;28;20035;-73
2021/12/05 12:47:39;;;;;;;7.40;1.70;;;;;;;4.45;70.72;95066.91;5107846;28;20047;-74
2021/12/05 12:50:34;;;;;;;3.78;1.10;;;;;;;4.42;70.70;95062.91;5106338;27;20105;-72
2021/12/05 12:53:10;;;;;;;3.00;1.20;;;;;;;4.41;70.40;95058.63;5107019;27;20058;-72
2021/12/05 12:55:39;;;;;;;2.53;1.15;;;;;;;4.43;69.59;95056.41;5106972;27;20135;-72
2021/12/05 12:58:10;;;;;;;4.53;0.95;;;;;;;4.44;70.35;95063.41;5106100;27;20051;-74
2021/12/05 13:00:41;;;;;;;4.45;1.23;;;;;;;4.43;70.20;95058.31;5106157;27;20130;-74
2021/12/05 13:03:28;;;;;;;6.07;1.50;;;;;;;4.38;69.98;95067.34;5105251;27;20134;-73
2021/12/05 13:11:55;;;;;;;4.68;1.23;;;;;;;4.44;70.83;95058.03;5107028;27;20054;-72
2021/12/05 13:14:23;;;;;;;4.50;1.38;;;;;;;4.49;71.24;95058.97;5106400;28;20108;-72
2021/12/05 13:16:50;;;;;;;4.70;1.20;;;;;;;4.51;71.45;95056.78;5107592;27;20498;-72
2021/12/05 13:19:22;;;;;;;5.40;1.20;;;;;;;4.57;71.57;95058.22;5107465;27;20603;-72
2021/12/05 13:21:52;;;;;;;3.78;1.20;;;;;;;4.60;71.03;95054.94;5107875;27;20040;-72
2021/12/05 13:24:25;;;;;;;9.00;1.35;;;;;;;4.59;71.96;95059.50;5107681;27;20194;-73
2021/12/05 13:26:54;;;;;;;3.10;1.00;;;;;;;4.66;72.55;95050.97;5107722;27;20055;-72
2021/12/05 13:29:25;;;;;;;2.42;1.30;;;;;;;4.72;72.51;95057.81;5107287;27;20048;-72
2021/12/05 13:31:56;;;;;;;4.50;1.70;;;;;;;4.76;70.36;95060.69;5111290;27;20047;-73
2021/12/05 13:34:29;;;;;;;3.28;1.10;;;;;;;4.79;69.69;95058.16;5111064;27;20452;-74
2021/12/05 13:37:00;;;;;;;4.10;1.50;;;;;;;4.72;69.06;95055.13;5111408;27;20051;-72
2021/12/05 13:39:38;;;;;;;4.85;1.30;;;;;;;4.66;69.99;95061.75;5111098;27;20055;-73
2021/12/05 13:42:14;;;;;;;4.18;1.25;;;;;;;4.65;70.41;95057.47;5111009;27;20043;-71
2021/12/05 13:45:08;;;;;;;6.47;1.27;;;;;;;4.71;70.83;95067.03;5111319;27;20055;-72
2021/12/05 13:47:39;;;;;;;5.93;1.30;;;;;;;4.75;69.04;95067.16;5111032;27;20053;-72
2021/12/05 13:50:31;;;;;;;4.82;1.67;;;;;;;4.74;69.75;95071.78;5111028;27;20047;-72
2021/12/05 13:53:15;;;;;;;5.28;1.38;;;;;;;4.75;69.03;95078.78;5108223;27;20051;-74
2021/12/05 13:55:44;;;;;;;2.72;1.20;;;;;;;4.74;68.15;95081.75;5110830;27;20063;-75
2021/12/05 13:58:25;;;;;;;3.03;1.10;;;;;;;4.69;67.97;95074.59;5110405;27;20047;-73
2021/12/05 14:00:57;;;;;;;3.00;1.30;;;;;;;4.66;68.54;95080.63;5110979;27;20043;-74
2021/12/05 14:03:45;;;;;;;5.13;1.67;;;;;;;4.68;68.56;95075.72;5110487;27;20047;-74
2021/12/05 14:06:34;;;;;;;8.13;2.08;;;;;;;4.66;69.26;95077.94;5110517;27;20047;-73
2021/12/05 14:09:05;;;;;;;4.30;1.60;;;;;;;4.65;69.84;95079.06;5110892;27;20051;-72
2021/12/05 14:11:34;;;;;;;7.57;1.80;;;;;;;4.63;70.51;95081.25;5110760;27;20054;-74
2021/12/05 14:14:04;;;;;;;7.88;2.15;;;;;;;4.64;70.88;95082.84;5111044;27;20055;-72
2021/12/05 14:16:34;;;;;;;5.78;2.75;;;;;;;4.64;71.06;95082.84;5109889;27;20050;-73
2021/12/05 14:19:01;;;;;;;6.32;2.45;;;;;;;4.65;70.85;95092.53;5110378;27;20047;-72
2021/12/05 14:21:28;;;;;;;4.28;1.80;;;;;;;4.63;71.39;95092.81;5101520;28;20051;-72
2021/12/05 14:23:58;;;;;;;4.70;1.95;;;;;;;4.64;71.88;95093.63;5110500;28;20043;-72
2021/12/05 14:26:27;;;;;;;10.32;2.67;;;;;;;4.64;71.49;95090.91;5109887;28;20143;-72
2021/12/05 14:29:00;;;;;;;8.00;2.28;;;;;;;4.68;71.78;95089.19;5110285;28;20040;-72
2021/12/05 14:31:29;;;;;;;3.95;1.80;;;;;;;4.67;71.28;95087.63;5110357;28;20043;-71
2021/12/05 14:33:57;;;;;;;5.68;2.15;;;;;;;4.68;71.57;95089.19;5100634;28;20056;-71
2021/12/05 14:36:26;;;;;;;3.30;2.20;;;;;;;4.56;72.71;95097.88;5088315;28;20769;-71
2021/12/05 14:39:25;;;;;;;4.20;2.10;;;;;;;4.50;74.34;95098.34;5089706;28;20410;-71
2021/12/05 14:41:55;;;;;;;7.18;2.10;;;;;;;4.40;75.18;95094.00;5025991;28;20053;-72
2021/12/05 14:44:21;;;;;;;2.88;1.60;;;;;;;4.28;75.86;95102.66;5075745;28;20047;-71
2021/12/05 14:46:59;;;;;;;3.10;1.50;;;;;;;4.19;77.32;95094.50;5087924;28;20040;-71
2021/12/05 14:49:29;;;;;;;5.97;1.60;;;;;;;4.16;78.12;95103.19;5088960;28;20055;-72
2021/12/05 14:51:57;;;;;;;4.78;1.75;;;;;;;4.04;78.64;95107.56;5089642;28;20055;-71
2021/12/05 14:54:28;;;;;;;6.28;1.50;;;;;;;3.93;78.66;95110.50;5088133;28;20044;-74
2021/12/05 14:56:56;;;;;;;6.18;1.60;;;;;;;3.81;79.19;95104.06;5088928;28;20067;-74
2021/12/05 14:59:23;;;;;;;3.58;1.73;;;;;;;3.77;79.20;95108.47;5086976;28;20128;-72
2021/12/05 15:01:54;;;;;;;7.55;2.08;;;;;;;3.67;79.98;95114.88;5109185;27;20051;-74
2021/12/05 15:04:25;;;;;;;4.97;1.95;;;;;;;3.62;80.20;95107.72;5108233;28;20047;-74
2021/12/05 15:06:53;;;;;;;4.28;1.73;;;;;;;3.58;80.76;95114.81;5107832;27;20048;-72
2021/12/05 15:09:23;;;;;;;5.13;2.25;;;;;;;3.54;81.17;95115.72;5098534;28;20055;-72
2021/12/05 15:11:53;;;;;;;5.93;2.55;;;;;;;3.54;81.33;95118.41;5088850;28;20051;-73
2021/12/05 15:14:21;;;;;;;9.00;2.90;;;;;;;3.48;81.86;95114.25;5084836;28;20048;-73
2021/12/05 15:16:53;;;;;;;7.22;2.80;;;;;;;3.45;82.13;95117.56;5079760;28;20051;-73
2021/12/05 15:19:20;;;;;;;4.43;2.60;;;;;;;3.45;82.07;95122.94;5088556;28;20529;-72
2021/12/05 15:21:46;;;;;;;7.53;3.13;;;;;;;3.42;82.36;95123.53;5088918;28;20051;-72
2021/12/05 15:24:16;;;;;;;7.57;3.10;;;;;;;3.40;82.55;95126.53;5088118;28;20499;-71
2021/12/05 15:26:43;;;;;;;12.02;2.92;;;;;;;3.35;83.05;95124.75;5087846;28;20047;-73
2021/12/05 15:29:09;;;;;;;6.25;2.67;;;;;;;3.31;83.08;95139.88;5092835;28;20117;-72
2021/12/05 15:31:38;;;;;;;7.05;3.40;;;;;;;3.28;83.32;95140.47;5086700;28;20086;-72
2021/12/05 15:34:22;;;;;;;12.90;4.57;;;;;;;3.25;83.66;95141.09;5088315;28;20062;-72
2021/12/05 15:36:49;;;;;;;4.75;3.25;;;;;;;3.24;83.90;95152.97;5087616;28;20040;-72
2021/12/05 15:39:21;;;;;;;8.07;3.88;;;;;;;3.21;84.04;95147.38;5092983;28;20048;-72
2021/12/05 15:41:48;;;;;;;9.40;3.85;;;;;;;3.19;84.62;95149.59;5106785;28;20249;-72
2021/12/05 15:44:31;;;;;;;7.38;3.85;;;;;;;3.14;84.83;95151.28;5100199;28;20628;-74
2021/12/05 15:47:05;;;;;;;7.70;3.92;;;;;;;3.15;85.02;95157.44;5094045;28;20052;-73
2021/12/05 15:49:50;;;;;;;6.30;3.83;;;;;;;3.16;84.95;95147.47;5108679;28;20043;-73
2021/12/05 15:52:17;;;;;;;9.02;4.28;;;;;;;3.16;85.01;95153.66;5108001;28;20352;-73
2021/12/05 15:54:46;;;;;;;6.50;4.03;;;;;;;3.11;84.86;95156.44;5107316;28;20047;-73
2021/12/05 15:57:15;;;;;;;10.05;4.93;;;;;;;3.06;84.96;95153.84;5107688;28;20040;-75
2021/12/05 15:59:45;;;;;;;9.32;3.65;;;;;;;3.03;84.65;95159.84;5108914;28;20553;-73
2021/12/05 16:02:11;;;;;;;6.78;3.30;;;;;;;3.01;84.83;95162.81;5107713;28;20502;-72
2021/12/05 16:04:40;;;;;;;6.55;3.70;;;;;;;3.00;84.66;95161.22;5108521;28;20047;-73
2021/12/05 16:07:10;;;;;;;11.05;3.83;;;;;;;3.01;84.85;95170.88;5106713;28;20051;-72
2021/12/05 16:09:37;;;;;;;5.38;3.70;;;;;;;3.01;84.91;95167.41;5107935;28;20067;-72